createdAt,value
2023-01-26T00:00:12.146Z,8.15
2023-01-26T00:02:15.004Z,7.68
2023-01-26T00:04:17.676Z,10.52
2023-01-26T00:06:21.884Z,8.73
2023-01-26T00:08:24.477Z,8.15
2023-01-26T00:10:27.478Z,13.43
2023-01-26T00:12:30.134Z,11.05
2023-01-26T00:14:50.101Z,8.00
2023-01-26T00:16:54.015Z,9.38
2023-01-26T00:18:56.650Z,10.48
2023-01-26T00:21:01.431Z,11.02
2023-01-26T00:23:04.239Z,10.88
2023-01-26T00:25:07.121Z,10.65
2023-01-26T00:27:09.738Z,13.27
2023-01-26T00:29:12.328Z,11.32
2023-01-26T00:31:17.334Z,10.60
2023-01-26T00:33:19.950Z,10.40
2023-01-26T00:35:22.678Z,9.30
2023-01-26T00:37:25.274Z,11.10
2023-01-26T00:39:27.916Z,10.30
2023-01-26T00:41:49.447Z,12.27
2023-01-26T00:43:52.123Z,13.32
2023-01-26T00:45:54.809Z,10.13
2023-01-26T00:47:57.487Z,8.82
2023-01-26T00:50:00.053Z,13.18
2023-01-26T00:52:03.349Z,13.50
2023-01-26T00:54:06.357Z,12.05
2023-01-26T00:56:09.080Z,14.80
2023-01-26T00:58:12.043Z,12.17
2023-01-26T01:00:16.886Z,13.97
2023-01-26T01:02:19.578Z,14.68
2023-01-26T01:04:22.463Z,10.48
2023-01-26T01:06:25.157Z,11.85
2023-01-26T01:08:28.004Z,13.48
2023-01-26T01:10:30.799Z,15.55
2023-01-26T01:12:33.337Z,13.60
2023-01-26T01:14:36.008Z,13.87
2023-01-26T01:16:38.759Z,13.53
2023-01-26T01:18:41.414Z,11.83
2023-01-26T01:20:43.969Z,11.68
2023-01-26T01:22:46.834Z,14.90
2023-01-26T01:24:49.481Z,14.97
2023-01-26T01:26:52.124Z,11.50
2023-01-26T01:28:58.470Z,15.67
2023-01-26T01:31:08.476Z,12.60
2023-01-26T01:33:11.179Z,19.13
2023-01-26T01:35:13.769Z,15.43
2023-01-26T01:37:17.565Z,17.00
2023-01-26T01:39:20.158Z,19.67
2023-01-26T01:41:23.493Z,15.00
2023-01-26T01:43:27.551Z,15.67
2023-01-26T01:45:49.287Z,15.23
2023-01-26T01:47:57.439Z,15.68
2023-01-26T01:50:00.053Z,17.50
2023-01-26T01:52:05.971Z,16.80
2023-01-26T01:54:15.660Z,16.58
2023-01-26T01:56:23.551Z,13.75
2023-01-26T01:58:30.114Z,14.82
2023-01-26T02:00:32.907Z,14.15
2023-01-26T02:02:37.803Z,14.57
2023-01-26T02:04:40.575Z,15.93
2023-01-26T02:06:51.593Z,19.70
2023-01-26T02:08:56.161Z,15.40
2023-01-26T02:11:02.627Z,21.17
2023-01-26T02:13:06.578Z,19.73
2023-01-26T02:15:09.462Z,17.08
2023-01-26T02:17:12.065Z,16.08
2023-01-26T02:19:33.156Z,18.17
2023-01-26T02:21:35.819Z,23.93
2023-01-26T02:23:56.581Z,18.77
2023-01-26T02:26:15.657Z,19.05
2023-01-26T02:28:19.827Z,14.83
2023-01-26T02:30:23.636Z,18.02
2023-01-26T02:32:28.470Z,19.90
2023-01-26T02:34:31.133Z,19.97
2023-01-26T02:36:34.609Z,17.13
2023-01-26T02:38:49.223Z,19.77
2023-01-26T02:40:55.091Z,17.70
2023-01-26T02:42:57.794Z,21.93
2023-01-26T02:45:00.511Z,23.97
2023-01-26T02:47:13.383Z,17.33
2023-01-26T02:49:34.419Z,16.90
2023-01-26T02:51:37.044Z,21.97
2023-01-26T02:53:39.848Z,18.40
2023-01-26T02:55:42.424Z,22.63
2023-01-26T02:57:46.156Z,20.93
2023-01-26T02:59:48.874Z,22.13
2023-01-26T03:01:54.326Z,17.63
2023-01-26T03:03:57.034Z,20.77
2023-01-26T03:05:59.584Z,22.73
2023-01-26T03:08:02.248Z,17.90
2023-01-26T03:10:06.452Z,18.23
2023-01-26T03:12:09.271Z,30.77
2023-01-26T03:14:13.715Z,24.40
2023-01-26T03:16:18.731Z,23.97
2023-01-26T03:18:41.794Z,20.03
2023-01-26T03:21:02.819Z,24.43
2023-01-26T03:23:27.262Z,26.70
2023-01-26T03:25:48.591Z,23.93
2023-01-26T03:27:51.148Z,24.90
2023-01-26T03:29:55.701Z,27.93
2023-01-26T03:32:01.666Z,23.10
2023-01-26T03:34:04.357Z,23.60
2023-01-26T03:36:07.281Z,28.53
2023-01-26T03:38:09.961Z,21.37
2023-01-26T03:40:31.811Z,29.03
2023-01-26T03:42:53.752Z,19.98
2023-01-26T03:45:14.649Z,35.10
2023-01-26T03:47:35.769Z,20.40
2023-01-26T03:49:56.663Z,28.57
2023-01-26T03:52:17.632Z,23.10
2023-01-26T03:54:38.911Z,24.43
2023-01-26T03:56:41.550Z,20.47
2023-01-26T03:58:45.696Z,21.67
2023-01-26T04:00:50.104Z,25.83
2023-01-26T04:03:11.123Z,23.20
2023-01-26T04:05:32.260Z,22.37
2023-01-26T04:07:53.280Z,26.13
2023-01-26T04:09:55.900Z,23.57
2023-01-26T04:11:59.206Z,20.53
2023-01-26T04:14:20.239Z,25.63
2023-01-26T04:16:41.547Z,25.63
2023-01-26T04:19:02.748Z,29.90
2023-01-26T04:21:24.628Z,20.80
2023-01-26T04:23:27.177Z,22.58
2023-01-26T04:25:29.872Z,29.77
2023-01-26T04:27:35.269Z,23.27
2023-01-26T04:29:37.903Z,25.90
2023-01-26T04:31:41.912Z,25.03
2023-01-26T04:33:44.799Z,24.57
2023-01-26T04:35:47.418Z,25.60
2023-01-26T04:37:50.069Z,26.83
2023-01-26T04:39:52.817Z,25.03
2023-01-26T04:41:55.493Z,24.13
2023-01-26T04:43:58.320Z,27.73
2023-01-26T04:46:03.736Z,25.13
2023-01-26T04:48:06.379Z,25.13
2023-01-26T04:50:10.314Z,23.00
2023-01-26T04:52:13.911Z,21.37
2023-01-26T04:54:16.539Z,24.93
2023-01-26T04:56:26.193Z,19.73
2023-01-26T04:58:28.840Z,22.07
2023-01-26T05:00:31.736Z,28.43
2023-01-26T05:02:34.419Z,29.00
2023-01-26T05:04:37.125Z,27.07
2023-01-26T05:06:40.024Z,19.27
2023-01-26T05:08:43.027Z,19.73
2023-01-26T05:10:46.686Z,22.43
2023-01-26T05:12:49.389Z,21.40
2023-01-26T05:14:52.010Z,22.30
2023-01-26T05:16:54.691Z,23.87
2023-01-26T05:18:57.373Z,27.23
2023-01-26T05:20:59.990Z,26.60
2023-01-26T05:23:02.775Z,19.73
2023-01-26T05:25:05.701Z,26.40
2023-01-26T05:27:23.534Z,24.23
2023-01-26T05:29:26.208Z,20.67
2023-01-26T05:31:28.864Z,26.30
2023-01-26T05:33:31.507Z,17.47
2023-01-26T05:35:34.882Z,27.23
2023-01-26T05:37:38.133Z,21.97
2023-01-26T05:39:40.730Z,19.90
2023-01-26T05:41:43.308Z,21.90
2023-01-26T05:43:45.944Z,22.97
2023-01-26T05:45:48.708Z,25.97
2023-01-26T05:47:51.447Z,21.13
2023-01-26T05:49:54.546Z,23.30
2023-01-26T05:51:57.513Z,28.70
2023-01-26T05:54:00.129Z,24.60
2023-01-26T05:56:02.753Z,21.57
2023-01-26T05:58:05.441Z,25.43
2023-01-26T06:00:10.374Z,25.80
2023-01-26T06:02:13.460Z,22.67
2023-01-26T06:04:16.026Z,25.80
2023-01-26T06:06:18.655Z,25.17
2023-01-26T06:08:21.476Z,20.07
2023-01-26T06:10:24.190Z,22.17
2023-01-26T06:12:31.695Z,31.30
2023-01-26T06:14:34.552Z,26.27
2023-01-26T06:16:37.142Z,21.57
2023-01-26T06:18:39.867Z,21.50
2023-01-26T06:20:44.275Z,23.70
2023-01-26T06:22:47.210Z,20.63
2023-01-26T06:24:49.889Z,26.37
2023-01-26T06:26:52.599Z,24.60
2023-01-26T06:28:55.375Z,23.27
2023-01-26T06:31:04.963Z,25.40
2023-01-26T06:33:07.713Z,25.27
2023-01-26T06:35:10.353Z,18.77
2023-01-26T06:37:14.163Z,25.53
2023-01-26T06:39:17.469Z,26.53
2023-01-26T06:41:20.283Z,31.37
2023-01-26T06:43:23.202Z,22.17
2023-01-26T06:45:25.867Z,20.07
2023-01-26T06:47:28.472Z,21.87
2023-01-26T06:49:31.117Z,21.63
2023-01-26T06:52:10.943Z,22.43
2023-01-26T06:54:14.595Z,22.93
2023-01-26T06:56:17.344Z,21.63
2023-01-26T06:58:20.074Z,27.10
2023-01-26T07:00:23.067Z,23.27
2023-01-26T07:02:25.897Z,17.88
2023-01-26T07:04:28.581Z,22.92
2023-01-26T07:06:31.564Z,22.35
2023-01-26T07:08:34.318Z,21.05
2023-01-26T07:10:37.933Z,22.73
2023-01-26T07:12:45.971Z,19.83
2023-01-26T07:14:51.130Z,17.67
2023-01-26T07:16:53.805Z,21.73
2023-01-26T07:18:57.211Z,18.15
2023-01-26T07:21:07.787Z,21.08
2023-01-26T07:23:11.425Z,21.73
2023-01-26T07:25:14.188Z,19.27
2023-01-26T07:27:16.876Z,16.40
2023-01-26T07:29:19.727Z,17.27
2023-01-26T07:31:22.552Z,21.55
2023-01-26T07:33:25.684Z,17.23
2023-01-26T07:35:29.920Z,22.42
2023-01-26T07:37:32.534Z,16.60
2023-01-26T07:39:35.221Z,22.52
2023-01-26T07:41:37.811Z,21.80
2023-01-26T07:43:42.307Z,21.92
2023-01-26T07:45:52.977Z,19.13
2023-01-26T07:47:56.235Z,21.95
2023-01-26T07:49:58.849Z,17.83
2023-01-26T07:52:03.181Z,18.08
2023-01-26T07:54:08.226Z,18.73
2023-01-26T07:56:13.365Z,16.73
2023-01-26T07:58:18.195Z,18.85
2023-01-26T08:00:20.991Z,20.55
2023-01-26T08:02:23.698Z,23.55
2023-01-26T08:04:26.302Z,15.68
2023-01-26T08:06:28.867Z,21.33
2023-01-26T08:08:31.834Z,14.32
2023-01-26T08:10:34.496Z,16.88
2023-01-26T08:12:40.876Z,18.20
2023-01-26T08:14:47.101Z,17.40
2023-01-26T08:16:50.018Z,19.30
2023-01-26T08:18:52.685Z,17.88
2023-01-26T08:20:56.797Z,24.60
2023-01-26T08:23:00.517Z,18.20
2023-01-26T08:25:03.361Z,19.58
2023-01-26T08:27:06.106Z,15.00
2023-01-26T08:29:08.795Z,23.60
2023-01-26T08:31:14.541Z,14.10
2023-01-26T08:33:17.218Z,14.07
2023-01-26T08:35:19.762Z,17.15
2023-01-26T08:37:22.426Z,21.33
2023-01-26T08:39:25.111Z,18.25
2023-01-26T08:41:27.887Z,16.55
2023-01-26T08:43:31.073Z,23.80
2023-01-26T08:45:33.809Z,20.30
2023-01-26T08:47:36.478Z,15.45
2023-01-26T08:49:39.101Z,18.90
2023-01-26T08:51:41.739Z,19.30
2023-01-26T08:53:44.549Z,20.25
2023-01-26T08:55:47.185Z,15.57
2023-01-26T08:57:52.863Z,16.42
2023-01-26T08:59:55.481Z,16.58
2023-01-26T09:01:58.276Z,15.57
2023-01-26T09:04:01.908Z,16.63
2023-01-26T09:06:06.342Z,19.98
2023-01-26T09:08:10.606Z,15.90
2023-01-26T09:10:13.769Z,17.50
2023-01-26T09:12:16.540Z,20.15
2023-01-26T09:14:19.206Z,17.35
2023-01-26T09:16:23.152Z,16.27
2023-01-26T09:18:25.796Z,15.38
2023-01-26T09:20:28.507Z,17.17
2023-01-26T09:22:31.298Z,19.58
2023-01-26T09:24:33.883Z,18.40
2023-01-26T09:26:36.809Z,17.52
2023-01-26T09:28:39.633Z,16.77
2023-01-26T09:30:42.429Z,14.63
2023-01-26T09:32:45.171Z,18.90
2023-01-26T09:34:47.963Z,17.60
2023-01-26T09:36:50.557Z,18.40
2023-01-26T09:38:54.329Z,20.38
2023-01-26T09:41:06.398Z,16.83
2023-01-26T09:45:44.425Z,16.45
2023-01-26T09:48:28.580Z,11.05
2023-01-26T09:50:47.854Z,17.25
2023-01-26T09:52:56.319Z,15.48
2023-01-26T09:55:01.481Z,13.68
2023-01-26T09:57:28.381Z,15.32
2023-01-26T09:59:51.388Z,14.82
2023-01-26T10:02:07.918Z,15.50
2023-01-26T10:04:18.706Z,17.55
2023-01-26T10:06:29.120Z,16.27
2023-01-26T10:08:31.899Z,15.45
2023-01-26T10:10:39.297Z,17.60
2023-01-26T10:12:41.877Z,11.73
2023-01-26T10:14:52.835Z,21.20
2023-01-26T10:16:55.485Z,16.95
2023-01-26T10:19:06.622Z,14.70
2023-01-26T10:21:10.811Z,14.23
2023-01-26T10:23:27.931Z,14.30
2023-01-26T10:25:42.343Z,13.35
2023-01-26T10:27:48.624Z,13.05
2023-01-26T10:29:51.942Z,16.77
2023-01-26T10:31:55.661Z,14.85
2023-01-26T10:34:03.466Z,16.85
2023-01-26T10:36:07.768Z,14.13
2023-01-26T10:38:38.331Z,12.90
2023-01-26T10:40:45.610Z,15.80
2023-01-26T10:42:59.498Z,16.48
2023-01-26T10:45:24.982Z,15.55
2023-01-26T10:47:28.339Z,14.77
2023-01-26T10:49:30.946Z,14.27
2023-01-26T10:51:36.133Z,13.75
2023-01-26T10:53:38.701Z,15.27
2023-01-26T10:55:41.696Z,12.10
2023-01-26T10:57:44.491Z,17.52
2023-01-26T11:00:08.396Z,12.93
2023-01-26T11:02:19.576Z,11.48
2023-01-26T11:04:28.203Z,13.18
2023-01-26T11:06:32.160Z,15.00
2023-01-26T11:08:37.267Z,16.50
2023-01-26T11:10:51.455Z,20.73
2023-01-26T11:13:14.397Z,15.80
2023-01-26T11:15:22.636Z,14.93
2023-01-26T11:17:31.205Z,16.63
2023-01-26T11:20:07.678Z,18.95
2023-01-26T11:22:18.178Z,16.67
2023-01-26T11:24:32.492Z,16.73
2023-01-26T11:26:46.838Z,13.07
2023-01-26T11:28:49.384Z,19.08
2023-01-26T11:31:23.325Z,15.88
2023-01-26T11:33:34.690Z,15.05
2023-01-26T11:35:57.553Z,12.55
2023-01-26T11:38:21.025Z,19.92
2023-01-26T11:40:44.988Z,15.68
2023-01-26T11:42:53.328Z,18.25
2023-01-26T11:45:04.819Z,15.27
2023-01-26T11:47:32.272Z,15.40
2023-01-26T11:49:34.780Z,14.68
2023-01-26T11:51:56.055Z,17.65
2023-01-26T11:54:42.928Z,19.50
2023-01-26T11:57:28.811Z,14.07
2023-01-26T11:59:38.760Z,20.10
2023-01-26T12:01:56.963Z,13.85
2023-01-26T12:03:59.556Z,14.20
2023-01-26T12:06:06.582Z,15.93
2023-01-26T12:08:22.658Z,15.25
2023-01-26T12:10:36.906Z,15.18
2023-01-26T12:12:49.757Z,17.25
2023-01-26T12:15:21.523Z,16.58
2023-01-26T12:17:51.804Z,13.88
2023-01-26T12:20:40.743Z,22.80
2023-01-26T12:22:50.640Z,16.15
2023-01-26T12:25:18.136Z,16.60
2023-01-26T12:27:43.973Z,13.60
2023-01-26T12:29:54.870Z,12.32
2023-01-26T12:32:00.266Z,17.23
2023-01-26T12:34:03.044Z,15.35
2023-01-26T12:36:25.588Z,17.77
2023-01-26T12:38:39.956Z,21.00
2023-01-26T12:41:10.769Z,12.38
2023-01-26T12:43:35.055Z,18.50
2023-01-26T12:45:42.371Z,15.98
2023-01-26T12:47:53.637Z,18.33
2023-01-26T12:50:27.069Z,16.50
2023-01-26T12:52:57.149Z,15.63
2023-01-26T12:55:07.515Z,15.38
2023-01-26T12:57:17.246Z,12.80
2023-01-26T12:59:39.430Z,15.85
2023-01-26T13:01:51.084Z,16.50
2023-01-26T13:04:08.039Z,14.13
2023-01-26T13:06:10.616Z,16.95
2023-01-26T13:08:31.710Z,14.15
2023-01-26T13:10:48.519Z,13.95
2023-01-26T13:13:20.950Z,15.38
2023-01-26T13:17:48.934Z,11.82
2023-01-26T13:19:53.604Z,13.48
2023-01-26T13:21:56.490Z,12.60
2023-01-26T13:23:59.194Z,17.08
2023-01-26T13:26:15.204Z,17.92
2023-01-26T13:28:27.840Z,19.02
2023-01-26T13:30:48.147Z,12.10
2023-01-26T13:33:04.567Z,17.23
2023-01-26T13:35:13.308Z,11.25
2023-01-26T13:37:24.176Z,14.20
2023-01-26T13:39:34.688Z,14.50
2023-01-26T13:41:46.525Z,11.32
2023-01-26T13:44:25.146Z,14.85
2023-01-26T13:46:30.790Z,12.32
2023-01-26T13:48:38.128Z,16.00
2023-01-26T13:50:41.412Z,18.92
2023-01-26T13:52:43.999Z,14.88
2023-01-26T13:54:48.137Z,15.43
2023-01-26T13:57:05.474Z,13.93
2023-01-26T13:59:12.732Z,12.18
2023-01-26T14:01:17.343Z,16.42
2023-01-26T14:03:23.754Z,20.17
2023-01-26T14:05:26.404Z,16.23
2023-01-26T14:07:35.173Z,12.93
2023-01-26T14:10:04.922Z,14.20
2023-01-26T14:12:08.618Z,16.85
2023-01-26T14:14:36.763Z,10.57
2023-01-26T14:16:39.474Z,15.13
2023-01-26T14:18:42.146Z,13.98
2023-01-26T14:20:45.907Z,12.23
2023-01-26T14:23:11.599Z,13.32
2023-01-26T14:25:20.424Z,10.85
2023-01-26T14:27:34.080Z,12.65
2023-01-26T14:29:39.572Z,13.38
2023-01-26T14:31:44.288Z,14.23
2023-01-26T14:33:48.933Z,14.77
2023-01-26T14:36:00.855Z,15.32
2023-01-26T14:38:21.927Z,13.63
2023-01-26T14:40:25.417Z,10.43
2023-01-26T14:42:28.442Z,12.57
2023-01-26T14:44:31.139Z,11.13
2023-01-26T14:46:46.518Z,12.02
2023-01-26T14:49:07.558Z,16.13
2023-01-26T14:51:22.211Z,12.15
2023-01-26T14:53:25.907Z,11.63
2023-01-26T14:55:32.131Z,17.50
2023-01-26T14:57:34.933Z,15.98
2023-01-26T14:59:40.772Z,11.50
2023-01-26T15:01:43.598Z,14.48
2023-01-26T15:03:46.888Z,13.43
2023-01-26T15:05:49.591Z,16.02
2023-01-26T15:07:57.742Z,13.75
2023-01-26T15:10:00.780Z,13.45
2023-01-26T15:12:18.622Z,14.30
2023-01-26T15:14:37.968Z,16.02
2023-01-26T15:16:53.258Z,12.20
2023-01-26T15:19:06.968Z,12.50
2023-01-26T15:21:21.011Z,14.80
2023-01-26T15:23:28.155Z,14.02
2023-01-26T15:25:33.615Z,12.20
2023-01-26T15:27:37.345Z,13.48
2023-01-26T15:29:39.911Z,10.38
2023-01-26T15:31:43.023Z,14.55
2023-01-26T15:33:49.853Z,12.23
2023-01-26T15:35:59.197Z,18.20
2023-01-26T15:38:13.236Z,13.45
2023-01-26T15:40:16.219Z,12.35
2023-01-26T15:42:25.147Z,13.38
2023-01-26T15:44:28.021Z,14.75
2023-01-26T15:46:30.872Z,15.20
2023-01-26T15:48:35.234Z,10.63
2023-01-26T15:50:37.861Z,11.82
2023-01-26T15:52:41.807Z,15.43
2023-01-26T15:54:45.402Z,15.27
2023-01-26T15:56:48.021Z,11.48
2023-01-26T15:58:51.152Z,15.05
2023-01-26T16:00:53.939Z,16.88
2023-01-26T16:02:56.698Z,12.48
2023-01-26T16:04:59.227Z,13.35
2023-01-26T16:07:01.820Z,14.82
2023-01-26T16:09:04.427Z,12.60
2023-01-26T16:11:12.151Z,15.80
2023-01-26T16:13:20.469Z,12.93
2023-01-26T16:15:48.706Z,14.35
2023-01-26T16:17:51.398Z,9.70
2023-01-26T16:19:54.049Z,14.70
2023-01-26T16:21:56.674Z,15.20
2023-01-26T16:24:00.199Z,14.88
2023-01-26T16:26:02.941Z,13.95
2023-01-26T16:28:05.555Z,13.65
2023-01-26T16:30:08.972Z,16.48
2023-01-26T16:32:29.403Z,14.02
2023-01-26T16:34:32.011Z,16.48
2023-01-26T16:36:35.067Z,13.75
2023-01-26T16:38:38.292Z,13.90
2023-01-26T16:40:43.143Z,13.07
2023-01-26T16:42:49.943Z,13.30
2023-01-26T16:44:52.542Z,12.52
2023-01-26T16:46:55.347Z,17.95
2023-01-26T16:48:57.986Z,12.73
2023-01-26T16:51:07.711Z,15.40
2023-01-26T16:53:33.255Z,15.27
2023-01-26T16:55:35.841Z,16.15
2023-01-26T16:57:46.275Z,12.20
2023-01-26T16:59:48.920Z,13.00
2023-01-26T17:01:51.717Z,13.02
2023-01-26T17:03:56.249Z,14.45
2023-01-26T17:05:59.116Z,10.68
2023-01-26T17:08:02.144Z,10.85
2023-01-26T17:10:05.829Z,13.95
2023-01-26T17:12:10.817Z,10.93
2023-01-26T17:14:13.468Z,13.02
2023-01-26T17:16:19.406Z,10.48
2023-01-26T17:18:22.089Z,11.98
2023-01-26T17:20:24.728Z,12.60
2023-01-26T17:22:31.051Z,11.05
2023-01-26T17:24:33.727Z,12.98
2023-01-26T17:26:36.665Z,11.05
2023-01-26T17:28:39.503Z,10.45
2023-01-26T17:30:42.353Z,14.02
2023-01-26T17:32:45.085Z,13.48
2023-01-26T17:34:47.620Z,16.30
2023-01-26T17:36:50.219Z,12.95
2023-01-26T17:38:53.340Z,12.95
2023-01-26T17:40:57.329Z,16.10
2023-01-26T17:42:59.843Z,12.18
2023-01-26T17:45:04.299Z,14.73
2023-01-26T17:47:10.398Z,11.57
2023-01-26T17:49:13.828Z,12.02
2023-01-26T17:51:19.323Z,13.43
2023-01-26T17:53:24.487Z,17.08
2023-01-26T17:55:27.038Z,14.27
2023-01-26T17:57:29.707Z,15.15
2023-01-26T17:59:32.251Z,7.78
2023-01-26T18:01:34.792Z,12.00
2023-01-26T18:03:41.351Z,10.82
2023-01-26T18:05:54.299Z,14.30
2023-01-26T18:07:56.889Z,10.68
2023-01-26T18:10:00.137Z,10.25
2023-01-26T18:12:02.846Z,11.95
2023-01-26T18:14:05.643Z,13.25
2023-01-26T18:16:09.978Z,11.32
2023-01-26T18:18:13.334Z,8.82
2023-01-26T18:20:16.004Z,11.25
2023-01-26T18:22:18.739Z,13.88
2023-01-26T18:24:21.433Z,11.82
2023-01-26T18:26:27.218Z,10.75
2023-01-26T18:28:30.289Z,10.93
2023-01-26T18:30:33.397Z,11.65
2023-01-26T18:32:37.138Z,12.88
2023-01-26T18:34:43.699Z,11.60
2023-01-26T18:36:46.259Z,12.80
2023-01-26T18:38:54.851Z,10.98
2023-01-26T18:40:57.495Z,11.85
2023-01-26T18:43:00.123Z,13.02
2023-01-26T18:45:02.861Z,10.60
2023-01-26T18:47:08.502Z,9.15
2023-01-26T18:49:11.412Z,10.90
2023-01-26T18:51:14.432Z,18.02
2023-01-26T18:53:17.082Z,12.52
2023-01-26T18:55:20.406Z,8.32
2023-01-26T18:57:22.942Z,10.32
2023-01-26T18:59:25.554Z,10.55
2023-01-26T19:01:28.253Z,11.88
2023-01-26T19:03:30.829Z,10.07
2023-01-26T19:05:33.471Z,12.18
2023-01-26T19:07:36.164Z,11.40
2023-01-26T19:09:39.237Z,11.50
2023-01-26T19:11:41.799Z,9.55
2023-01-26T19:13:46.874Z,9.00
2023-01-26T19:15:50.013Z,8.00
2023-01-26T19:17:52.557Z,11.45
2023-01-26T19:19:55.361Z,12.52
2023-01-26T19:21:58.197Z,10.20
2023-01-26T19:24:05.828Z,14.45
2023-01-26T19:26:13.100Z,12.30
2023-01-26T19:28:15.671Z,14.57
2023-01-26T19:30:18.531Z,11.25
2023-01-26T19:32:21.262Z,8.57
2023-01-26T19:34:24.550Z,8.10
2023-01-26T19:36:29.709Z,12.63
2023-01-26T19:38:33.507Z,11.50
2023-01-26T19:40:36.301Z,10.35
2023-01-26T19:42:38.902Z,8.85
2023-01-26T19:44:41.554Z,11.80
2023-01-26T19:46:44.180Z,9.93
2023-01-26T19:48:46.820Z,8.75
2023-01-26T19:51:05.550Z,8.65
2023-01-26T19:53:08.141Z,6.15
2023-01-26T19:55:10.963Z,9.98
2023-01-26T19:57:13.640Z,6.55
2023-01-26T19:59:16.259Z,9.48
2023-01-26T20:01:19.823Z,9.00
2023-01-26T20:03:24.484Z,9.10
2023-01-26T20:05:27.086Z,10.05
2023-01-26T20:07:29.873Z,8.70
2023-01-26T20:09:33.586Z,10.45
2023-01-26T20:11:36.409Z,7.95
2023-01-26T20:13:39.262Z,8.75
2023-01-26T20:15:42.815Z,7.03
2023-01-26T20:17:46.082Z,6.88
2023-01-26T20:19:48.778Z,8.73
2023-01-26T20:21:51.519Z,8.85
2023-01-26T20:23:56.027Z,8.02
2023-01-26T20:26:11.299Z,7.47
2023-01-26T20:28:14.757Z,11.68
2023-01-26T20:30:17.929Z,14.70
2023-01-26T20:32:20.552Z,11.02
2023-01-26T20:34:24.321Z,11.18
2023-01-26T20:36:28.715Z,6.78
2023-01-26T20:38:32.179Z,11.82
2023-01-26T20:40:34.780Z,13.88
2023-01-26T20:42:37.352Z,9.30
2023-01-26T20:44:41.867Z,7.20
2023-01-26T20:46:45.917Z,9.77
2023-01-26T20:48:48.560Z,8.73
2023-01-26T20:50:52.804Z,5.95
2023-01-26T20:52:55.632Z,7.68
2023-01-26T20:54:58.263Z,9.73
2023-01-26T20:57:00.990Z,7.60
2023-01-26T20:59:04.957Z,8.32
2023-01-26T21:01:13.469Z,10.55
2023-01-26T21:03:16.366Z,7.28
2023-01-26T21:05:19.765Z,8.95
2023-01-26T21:07:22.449Z,5.95
2023-01-26T21:09:25.062Z,8.93
2023-01-26T21:11:30.797Z,5.90
2023-01-26T21:13:33.861Z,10.10
2023-01-26T21:15:36.489Z,6.47
2023-01-26T21:17:39.017Z,9.27
2023-01-26T21:19:41.608Z,8.20
2023-01-26T21:21:44.737Z,7.78
2023-01-26T21:23:47.954Z,5.53
2023-01-26T21:25:51.038Z,6.70
2023-01-26T21:27:53.630Z,10.30
2023-01-26T21:29:56.253Z,7.78
2023-01-26T21:31:58.975Z,8.70
2023-01-26T21:34:01.892Z,9.00
2023-01-26T21:36:06.401Z,7.20
2023-01-26T21:38:09.019Z,8.13
2023-01-26T21:40:12.255Z,11.45
2023-01-26T21:42:15.593Z,8.77
2023-01-26T21:44:21.162Z,8.63
2023-01-26T21:46:23.790Z,10.15
2023-01-26T21:48:32.191Z,6.65
2023-01-26T21:50:55.114Z,9.13
2023-01-26T21:52:58.456Z,5.93
2023-01-26T21:55:01.124Z,6.65
2023-01-26T21:57:28.220Z,8.23
2023-01-26T21:59:31.037Z,7.53
2023-01-26T22:01:45.398Z,7.07
2023-01-26T22:03:48.554Z,9.18
2023-01-26T22:05:53.985Z,8.50
2023-01-26T22:07:56.531Z,7.10
2023-01-26T22:09:59.125Z,9.55
2023-01-26T22:12:02.051Z,13.18
2023-01-26T22:14:04.926Z,6.25
2023-01-26T22:16:07.880Z,11.32
2023-01-26T22:18:10.467Z,7.78
2023-01-26T22:20:13.478Z,6.50
2023-01-26T22:22:16.231Z,5.40
2023-01-26T22:24:19.044Z,9.90
2023-01-26T22:26:23.617Z,8.93
2023-01-26T22:28:26.314Z,7.00
2023-01-26T22:30:29.132Z,6.97
2023-01-26T22:32:31.817Z,10.90
2023-01-26T22:34:34.795Z,9.48
2023-01-26T22:36:37.832Z,6.55
2023-01-26T22:38:40.458Z,10.13
2023-01-26T22:40:42.983Z,13.52
2023-01-26T22:42:45.599Z,10.50
2023-01-26T22:44:48.143Z,9.88
2023-01-26T22:46:52.736Z,7.97
2023-01-26T22:48:57.561Z,13.68
2023-01-26T22:51:30.594Z,8.85
2023-01-26T22:53:33.221Z,6.07
2023-01-26T22:55:40.260Z,8.43
2023-01-26T22:57:42.891Z,7.82
2023-01-26T22:59:45.493Z,7.18
2023-01-26T23:01:48.059Z,6.53
2023-01-26T23:03:53.068Z,7.10
2023-01-26T23:05:59.900Z,6.97
2023-01-26T23:08:02.618Z,12.52
2023-01-26T23:10:05.762Z,8.82
2023-01-26T23:12:08.482Z,5.38
2023-01-26T23:14:11.132Z,7.72
2023-01-26T23:16:14.201Z,4.75
2023-01-26T23:18:16.842Z,10.00
2023-01-26T23:20:20.930Z,7.60
2023-01-26T23:22:23.728Z,8.40
2023-01-26T23:24:26.373Z,7.28
2023-01-26T23:26:29.078Z,11.00
2023-01-26T23:28:34.913Z,6.65
2023-01-26T23:30:37.556Z,9.43
2023-01-26T23:32:40.211Z,10.65
2023-01-26T23:34:42.823Z,11.38
2023-01-26T23:36:45.428Z,6.80
2023-01-26T23:38:48.136Z,8.70
2023-01-26T23:40:51.304Z,8.93
2023-01-26T23:43:07.149Z,5.68
2023-01-26T23:45:17.103Z,5.97
2023-01-26T23:47:20.342Z,7.15
2023-01-26T23:49:23.093Z,6.68
2023-01-26T23:51:25.736Z,13.55
2023-01-26T23:53:29.782Z,6.97
2023-01-26T23:55:32.435Z,6.85
2023-01-26T23:57:36.368Z,9.18
2023-01-26T23:59:38.951Z,7.03
